KLAA/LAA METAR and TAF weather

Enter ICAO airport designator
Station Type Date Time Source
KLAA METAR 2019/10/15 20:53 UTC NOAA

KLAA 152053Z AUTO 03008KT 10SM CLR 20/M02 A3016 RMK AO2 SLP188 T02001022 56015


Station Type Date Time Source
KLAA Decoded METAR 2019/10/15 20:53 UTC NOAA

LAMAR MUNICIPAL AIRPORT, CO, United States (KLAA) 38-04N 102-41W 1119M
Oct 15, 2019 - 04:53 PM EDT / 2019.10.15 2053 UTC
Wind: from the NNE (030 degrees) at 9 MPH (8 KT):0
Visibility: 10 mile(s):0
Sky conditions: clear
Temperature: 68.0 F (20.0 C)
Dew Point: 28.0 F (-2.2 C)
Relative Humidity: 22%
Pressure (altimeter): 30.16 in. Hg (1021 hPa)
Pressure tendency: 0.04 inches (1.5 hPa) lower than three hours ago
ob: KLAA 152053Z AUTO 03008KT 10SM CLR 20/M02 A3016 RMK AO2 SLP188 T02001022 56015
cycle: 21

Station Type Date Time Source
KLAA TAF UTC NOAA

Error!

Example: see airport list